Terminal Aerodrome Forecast
Issued by NWS

Home | Current Version | Previous Version | Text Only | Print | Product List | Glossary On
Versions: 1 2 3 4 5 6 7 8 9 10 11 12 13 14
000
FTUS45 KPSR 210500
TAFBLH
TAF
KBLH 210521Z 2106/2206 23005KT P6SM SKC
     FM210700 VRB04KT P6SM SKC
     FM212100 21010KT P6SM SKC=

USA.gov is the U.S. government's official web portal to all federal, state and local government web resources and services.